sensor_id;sensor_type;location;lat;lon;timestamp;P1;durP1;ratioP1;P2;durP2;ratioP2
20344;SDS011;10330;48.816;9.278;2023-04-25T00:01:21;1.55;;;1.23;;
20344;SDS011;10330;48.816;9.278;2023-04-25T00:03:50;1.20;;;1.20;;
20344;SDS011;10330;48.816;9.278;2023-04-25T00:06:16;1.13;;;1.13;;
20344;SDS011;10330;48.816;9.278;2023-04-25T00:08:43;1.50;;;1.38;;
20344;SDS011;10330;48.816;9.278;2023-04-25T00:11:09;1.08;;;1.08;;
20344;SDS011;10330;48.816;9.278;2023-04-25T00:13:35;1.17;;;1.17;;
20344;SDS011;10330;48.816;9.278;2023-04-25T00:16:02;0.95;;;0.88;;
20344;SDS011;10330;48.816;9.278;2023-04-25T00:18:28;1.02;;;1.02;;
20344;SDS011;10330;48.816;9.278;2023-04-25T00:20:54;1.15;;;1.15;;
20344;SDS011;10330;48.816;9.278;2023-04-25T00:23:21;1.40;;;1.30;;
20344;SDS011;10330;48.816;9.278;2023-04-25T00:25:48;4.95;;;1.40;;
20344;SDS011;10330;48.816;9.278;2023-04-25T00:28:15;1.20;;;1.20;;
20344;SDS011;10330;48.816;9.278;2023-04-25T00:30:42;1.77;;;1.27;;
20344;SDS011;10330;48.816;9.278;2023-04-25T00:33:09;2.67;;;1.27;;
20344;SDS011;10330;48.816;9.278;2023-04-25T00:35:35;1.35;;;1.35;;
20344;SDS011;10330;48.816;9.278;2023-04-25T00:38:02;4.20;;;1.40;;
20344;SDS011;10330;48.816;9.278;2023-04-25T00:40:28;1.52;;;1.42;;
20344;SDS011;10330;48.816;9.278;2023-04-25T00:42:55;3.08;;;1.35;;
20344;SDS011;10330;48.816;9.278;2023-04-25T00:45:21;1.60;;;1.50;;
20344;SDS011;10330;48.816;9.278;2023-04-25T00:47:52;2.38;;;1.33;;
20344;SDS011;10330;48.816;9.278;2023-04-25T00:50:19;1.42;;;1.20;;
20344;SDS011;10330;48.816;9.278;2023-04-25T00:52:46;1.13;;;1.13;;
20344;SDS011;10330;48.816;9.278;2023-04-25T00:55:12;1.48;;;1.48;;
20344;SDS011;10330;48.816;9.278;2023-04-25T00:57:39;4.03;;;1.35;;
20344;SDS011;10330;48.816;9.278;2023-04-25T01:00:06;1.60;;;1.50;;
20344;SDS011;10330;48.816;9.278;2023-04-25T01:02:35;2.15;;;1.58;;
20344;SDS011;10330;48.816;9.278;2023-04-25T01:05:02;1.25;;;1.13;;
20344;SDS011;10330;48.816;9.278;2023-04-25T01:07:28;1.50;;;1.45;;
20344;SDS011;10330;48.816;9.278;2023-04-25T01:09:56;1.67;;;1.45;;
20344;SDS011;10330;48.816;9.278;2023-04-25T01:12:22;8.85;;;1.17;;
20344;SDS011;10330;48.816;9.278;2023-04-25T01:14:49;1.55;;;1.55;;
20344;SDS011;10330;48.816;9.278;2023-04-25T01:17:16;1.20;;;1.20;;
20344;SDS011;10330;48.816;9.278;2023-04-25T01:19:43;2.83;;;1.10;;
20344;SDS011;10330;48.816;9.278;2023-04-25T01:22:11;3.58;;;1.13;;
20344;SDS011;10330;48.816;9.278;2023-04-25T01:24:37;1.00;;;1.00;;
20344;SDS011;10330;48.816;9.278;2023-04-25T01:27:04;1.35;;;1.35;;
20344;SDS011;10330;48.816;9.278;2023-04-25T01:29:31;4.82;;;1.45;;
20344;SDS011;10330;48.816;9.278;2023-04-25T01:31:58;1.77;;;1.67;;
20344;SDS011;10330;48.816;9.278;2023-04-25T01:34:25;1.70;;;1.40;;
20344;SDS011;10330;48.816;9.278;2023-04-25T01:36:51;1.30;;;1.25;;
20344;SDS011;10330;48.816;9.278;2023-04-25T01:39:19;1.67;;;1.45;;
20344;SDS011;10330;48.816;9.278;2023-04-25T01:41:46;1.40;;;1.30;;
20344;SDS011;10330;48.816;9.278;2023-04-25T01:44:13;5.88;;;1.65;;
20344;SDS011;10330;48.816;9.278;2023-04-25T01:46:40;1.70;;;1.60;;
20344;SDS011;10330;48.816;9.278;2023-04-25T01:49:07;2.25;;;1.40;;
20344;SDS011;10330;48.816;9.278;2023-04-25T01:51:34;2.60;;;1.55;;
20344;SDS011;10330;48.816;9.278;2023-04-25T01:54:01;1.63;;;1.52;;
20344;SDS011;10330;48.816;9.278;2023-04-25T01:56:31;1.55;;;1.45;;
20344;SDS011;10330;48.816;9.278;2023-04-25T01:59:00;1.65;;;1.55;;
20344;SDS011;10330;48.816;9.278;2023-04-25T02:02:04;1.50;;;1.50;;
20344;SDS011;10330;48.816;9.278;2023-04-25T02:04:34;1.35;;;1.25;;
20344;SDS011;10330;48.816;9.278;2023-04-25T02:07:03;1.83;;;1.40;;
20344;SDS011;10330;48.816;9.278;2023-04-25T02:09:42;1.85;;;1.75;;
20344;SDS011;10330;48.816;9.278;2023-04-25T02:12:10;8.20;;;1.77;;
20344;SDS011;10330;48.816;9.278;2023-04-25T02:14:57;2.50;;;1.75;;
20344;SDS011;10330;48.816;9.278;2023-04-25T02:17:35;8.32;;;1.60;;
20344;SDS011;10330;48.816;9.278;2023-04-25T02:20:02;1.85;;;1.75;;
20344;SDS011;10330;48.816;9.278;2023-04-25T02:22:28;1.75;;;1.45;;
20344;SDS011;10330;48.816;9.278;2023-04-25T02:24:56;1.70;;;1.60;;
20344;SDS011;10330;48.816;9.278;2023-04-25T02:27:22;1.63;;;1.42;;
20344;SDS011;10330;48.816;9.278;2023-04-25T02:29:50;1.73;;;1.63;;
20344;SDS011;10330;48.816;9.278;2023-04-25T02:32:20;2.70;;;1.80;;
20344;SDS011;10330;48.816;9.278;2023-04-25T02:34:46;5.80;;;2.13;;
20344;SDS011;10330;48.816;9.278;2023-04-25T02:37:13;3.28;;;2.22;;
20344;SDS011;10330;48.816;9.278;2023-04-25T02:39:40;2.47;;;2.33;;
20344;SDS011;10330;48.816;9.278;2023-04-25T02:42:06;2.47;;;2.17;;
20344;SDS011;10330;48.816;9.278;2023-04-25T02:44:32;5.28;;;2.00;;
20344;SDS011;10330;48.816;9.278;2023-04-25T02:46:58;4.22;;;2.22;;
20344;SDS011;10330;48.816;9.278;2023-04-25T02:49:24;2.03;;;1.92;;
20344;SDS011;10330;48.816;9.278;2023-04-25T02:51:51;3.90;;;1.90;;
20344;SDS011;10330;48.816;9.278;2023-04-25T02:54:17;5.50;;;2.30;;
20344;SDS011;10330;48.816;9.278;2023-04-25T02:56:46;2.58;;;1.65;;
20344;SDS011;10330;48.816;9.278;2023-04-25T02:59:18;2.13;;;1.90;;
20344;SDS011;10330;48.816;9.278;2023-04-25T03:01:44;4.22;;;1.85;;
20344;SDS011;10330;48.816;9.278;2023-04-25T03:04:11;5.40;;;1.90;;
20344;SDS011;10330;48.816;9.278;2023-04-25T03:06:37;3.05;;;1.85;;
20344;SDS011;10330;48.816;9.278;2023-04-25T03:09:03;3.60;;;2.20;;
20344;SDS011;10330;48.816;9.278;2023-04-25T03:11:30;2.15;;;2.03;;
20344;SDS011;10330;48.816;9.278;2023-04-25T03:13:56;1.92;;;1.80;;
20344;SDS011;10330;48.816;9.278;2023-04-25T03:16:23;2.42;;;1.63;;
20344;SDS011;10330;48.816;9.278;2023-04-25T03:18:49;1.80;;;1.70;;
20344;SDS011;10330;48.816;9.278;2023-04-25T03:21:16;2.63;;;1.67;;
20344;SDS011;10330;48.816;9.278;2023-04-25T03:23:43;1.77;;;1.67;;
20344;SDS011;10330;48.816;9.278;2023-04-25T03:26:09;4.25;;;1.55;;
20344;SDS011;10330;48.816;9.278;2023-04-25T03:28:35;1.60;;;1.50;;
20344;SDS011;10330;48.816;9.278;2023-04-25T03:31:02;1.77;;;1.67;;
20344;SDS011;10330;48.816;9.278;2023-04-25T03:33:29;3.95;;;1.67;;
20344;SDS011;10330;48.816;9.278;2023-04-25T03:35:56;1.65;;;1.55;;
20344;SDS011;10330;48.816;9.278;2023-04-25T03:38:22;1.52;;;1.42;;
20344;SDS011;10330;48.816;9.278;2023-04-25T03:40:49;1.98;;;1.88;;
20344;SDS011;10330;48.816;9.278;2023-04-25T03:43:16;2.50;;;1.85;;
20344;SDS011;10330;48.816;9.278;2023-04-25T03:45:49;3.95;;;2.00;;
20344;SDS011;10330;48.816;9.278;2023-04-25T03:48:18;1.65;;;1.55;;
20344;SDS011;10330;48.816;9.278;2023-04-25T03:50:47;1.67;;;1.58;;
20344;SDS011;10330;48.816;9.278;2023-04-25T03:53:13;5.00;;;1.50;;
20344;SDS011;10330;48.816;9.278;2023-04-25T03:56:12;4.13;;;1.55;;
20344;SDS011;10330;48.816;9.278;2023-04-25T03:58:39;6.55;;;1.73;;
20344;SDS011;10330;48.816;9.278;2023-04-25T04:01:06;2.22;;;1.83;;
20344;SDS011;10330;48.816;9.278;2023-04-25T04:03:35;1.58;;;1.50;;
20344;SDS011;10330;48.816;9.278;2023-04-25T04:06:03;2.97;;;2.05;;
20344;SDS011;10330;48.816;9.278;2023-04-25T04:08:32;2.22;;;1.80;;
20344;SDS011;10330;48.816;9.278;2023-04-25T04:10:59;1.83;;;1.70;;
20344;SDS011;10330;48.816;9.278;2023-04-25T04:13:26;13.43;;;5.78;;
20344;SDS011;10330;48.816;9.278;2023-04-25T04:15:53;6.35;;;3.65;;
20344;SDS011;10330;48.816;9.278;2023-04-25T04:18:19;6.30;;;2.92;;
20344;SDS011;10330;48.816;9.278;2023-04-25T04:20:46;4.63;;;2.35;;
20344;SDS011;10330;48.816;9.278;2023-04-25T04:23:12;8.93;;;4.03;;
20344;SDS011;10330;48.816;9.278;2023-04-25T04:25:38;5.78;;;2.47;;
20344;SDS011;10330;48.816;9.278;2023-04-25T04:28:25;2.05;;;1.90;;
20344;SDS011;10330;48.816;9.278;2023-04-25T04:31:12;2.88;;;1.50;;
20344;SDS011;10330;48.816;9.278;2023-04-25T04:33:41;2.15;;;1.95;;
20344;SDS011;10330;48.816;9.278;2023-04-25T04:36:07;2.20;;;2.03;;
20344;SDS011;10330;48.816;9.278;2023-04-25T04:38:35;2.35;;;1.77;;
20344;SDS011;10330;48.816;9.278;2023-04-25T04:41:03;2.75;;;1.95;;
20344;SDS011;10330;48.816;9.278;2023-04-25T04:43:39;2.35;;;2.03;;
20344;SDS011;10330;48.816;9.278;2023-04-25T04:46:43;2.78;;;1.70;;
20344;SDS011;10330;48.816;9.278;2023-04-25T04:49:33;8.38;;;1.77;;
20344;SDS011;10330;48.816;9.278;2023-04-25T04:52:08;3.35;;;1.63;;
20344;SDS011;10330;48.816;9.278;2023-04-25T04:54:51;2.85;;;1.77;;
20344;SDS011;10330;48.816;9.278;2023-04-25T04:57:34;8.07;;;2.22;;
20344;SDS011;10330;48.816;9.278;2023-04-25T05:00:25;2.53;;;2.33;;
20344;SDS011;10330;48.816;9.278;2023-04-25T05:03:10;4.57;;;2.03;;
20344;SDS011;10330;48.816;9.278;2023-04-25T05:05:55;4.22;;;1.90;;
20344;SDS011;10330;48.816;9.278;2023-04-25T05:08:56;4.35;;;2.10;;
20344;SDS011;10330;48.816;9.278;2023-04-25T05:11:53;2.15;;;2.05;;
20344;SDS011;10330;48.816;9.278;2023-04-25T05:14:38;6.03;;;2.75;;
20344;SDS011;10330;48.816;9.278;2023-04-25T05:17:22;2.55;;;2.35;;
20344;SDS011;10330;48.816;9.278;2023-04-25T05:20:21;6.00;;;3.00;;
20344;SDS011;10330;48.816;9.278;2023-04-25T05:23:10;7.63;;;2.40;;
20344;SDS011;10330;48.816;9.278;2023-04-25T05:25:52;7.22;;;2.35;;
20344;SDS011;10330;48.816;9.278;2023-04-25T05:28:36;2.67;;;2.47;;
20344;SDS011;10330;48.816;9.278;2023-04-25T05:31:14;6.20;;;2.50;;
20344;SDS011;10330;48.816;9.278;2023-04-25T05:33:51;2.30;;;2.17;;
20344;SDS011;10330;48.816;9.278;2023-04-25T05:36:19;2.58;;;1.83;;
20344;SDS011;10330;48.816;9.278;2023-04-25T05:38:45;2.33;;;2.15;;
20344;SDS011;10330;48.816;9.278;2023-04-25T05:41:41;6.00;;;2.65;;
20344;SDS011;10330;48.816;9.278;2023-04-25T05:44:25;3.90;;;2.40;;
20344;SDS011;10330;48.816;9.278;2023-04-25T05:47:14;8.40;;;2.70;;
20344;SDS011;10330;48.816;9.278;2023-04-25T05:49:59;9.40;;;2.63;;
20344;SDS011;10330;48.816;9.278;2023-04-25T05:52:43;3.97;;;2.65;;
20344;SDS011;10330;48.816;9.278;2023-04-25T05:55:22;2.92;;;2.35;;
20344;SDS011;10330;48.816;9.278;2023-04-25T05:57:49;3.22;;;2.92;;
20344;SDS011;10330;48.816;9.278;2023-04-25T06:00:16;4.82;;;2.92;;
20344;SDS011;10330;48.816;9.278;2023-04-25T06:02:47;2.60;;;2.40;;
20344;SDS011;10330;48.816;9.278;2023-04-25T06:05:14;4.13;;;2.42;;
20344;SDS011;10330;48.816;9.278;2023-04-25T06:07:40;3.40;;;2.97;;
20344;SDS011;10330;48.816;9.278;2023-04-25T06:10:07;6.95;;;5.00;;
20344;SDS011;10330;48.816;9.278;2023-04-25T06:12:33;3.42;;;3.15;;
20344;SDS011;10330;48.816;9.278;2023-04-25T06:15:00;2.95;;;2.75;;
20344;SDS011;10330;48.816;9.278;2023-04-25T06:17:27;2.92;;;2.67;;
20344;SDS011;10330;48.816;9.278;2023-04-25T06:19:53;2.47;;;2.38;;
20344;SDS011;10330;48.816;9.278;2023-04-25T06:22:19;2.97;;;2.45;;
20344;SDS011;10330;48.816;9.278;2023-04-25T06:24:45;2.33;;;2.20;;
20344;SDS011;10330;48.816;9.278;2023-04-25T06:27:12;3.95;;;2.75;;
20344;SDS011;10330;48.816;9.278;2023-04-25T06:29:38;3.95;;;3.00;;
20344;SDS011;10330;48.816;9.278;2023-04-25T06:32:05;3.25;;;2.67;;
20344;SDS011;10330;48.816;9.278;2023-04-25T06:34:32;2.80;;;2.60;;
20344;SDS011;10330;48.816;9.278;2023-04-25T06:37:11;4.30;;;3.55;;
20344;SDS011;10330;48.816;9.278;2023-04-25T06:39:40;3.75;;;2.80;;
20344;SDS011;10330;48.816;9.278;2023-04-25T06:42:06;2.60;;;2.40;;
20344;SDS011;10330;48.816;9.278;2023-04-25T06:44:45;3.83;;;2.50;;
20344;SDS011;10330;48.816;9.278;2023-04-25T06:47:12;2.92;;;2.63;;
20344;SDS011;10330;48.816;9.278;2023-04-25T06:49:40;3.33;;;2.33;;
20344;SDS011;10330;48.816;9.278;2023-04-25T06:52:08;2.65;;;2.50;;
20344;SDS011;10330;48.816;9.278;2023-04-25T06:54:36;4.30;;;2.30;;
20344;SDS011;10330;48.816;9.278;2023-04-25T06:57:14;7.88;;;3.00;;
20344;SDS011;10330;48.816;9.278;2023-04-25T06:59:41;3.05;;;2.78;;
20344;SDS011;10330;48.816;9.278;2023-04-25T07:02:07;3.85;;;2.85;;
20344;SDS011;10330;48.816;9.278;2023-04-25T07:04:34;2.80;;;2.60;;
20344;SDS011;10330;48.816;9.278;2023-04-25T07:07:01;5.93;;;2.67;;
20344;SDS011;10330;48.816;9.278;2023-04-25T07:09:36;3.05;;;2.85;;
20344;SDS011;10330;48.816;9.278;2023-04-25T07:12:04;2.70;;;2.50;;
20344;SDS011;10330;48.816;9.278;2023-04-25T07:14:36;2.95;;;2.75;;
20344;SDS011;10330;48.816;9.278;2023-04-25T07:17:03;2.60;;;2.40;;
20344;SDS011;10330;48.816;9.278;2023-04-25T07:19:33;3.72;;;3.10;;
20344;SDS011;10330;48.816;9.278;2023-04-25T07:22:01;4.32;;;2.88;;
20344;SDS011;10330;48.816;9.278;2023-04-25T07:24:30;2.42;;;2.22;;
20344;SDS011;10330;48.816;9.278;2023-04-25T07:26:56;3.10;;;2.63;;
20344;SDS011;10330;48.816;9.278;2023-04-25T07:29:23;2.90;;;2.47;;
20344;SDS011;10330;48.816;9.278;2023-04-25T07:31:50;3.33;;;3.05;;
20344;SDS011;10330;48.816;9.278;2023-04-25T07:34:16;4.18;;;3.08;;
20344;SDS011;10330;48.816;9.278;2023-04-25T07:36:44;5.05;;;3.10;;
20344;SDS011;10330;48.816;9.278;2023-04-25T07:40:09;3.10;;;2.83;;
20344;SDS011;10330;48.816;9.278;2023-04-25T07:42:48;2.70;;;2.50;;
20344;SDS011;10330;48.816;9.278;2023-04-25T07:45:20;5.50;;;3.15;;
20344;SDS011;10330;48.816;9.278;2023-04-25T07:47:47;7.53;;;3.53;;
20344;SDS011;10330;48.816;9.278;2023-04-25T07:50:14;4.80;;;3.33;;
20344;SDS011;10330;48.816;9.278;2023-04-25T07:52:40;6.28;;;2.92;;
20344;SDS011;10330;48.816;9.278;2023-04-25T07:55:18;5.47;;;3.60;;
20344;SDS011;10330;48.816;9.278;2023-04-25T07:57:59;4.25;;;3.78;;
20344;SDS011;10330;48.816;9.278;2023-04-25T08:00:28;4.47;;;3.38;;
20344;SDS011;10330;48.816;9.278;2023-04-25T08:03:11;6.25;;;3.47;;
20344;SDS011;10330;48.816;9.278;2023-04-25T08:05:38;4.20;;;3.78;;
20344;SDS011;10330;48.816;9.278;2023-04-25T08:08:06;8.07;;;3.58;;
20344;SDS011;10330;48.816;9.278;2023-04-25T08:10:33;3.60;;;3.22;;
20344;SDS011;10330;48.816;9.278;2023-04-25T08:12:59;3.97;;;3.67;;
20344;SDS011;10330;48.816;9.278;2023-04-25T08:15:26;5.97;;;3.92;;
20344;SDS011;10330;48.816;9.278;2023-04-25T08:17:52;4.15;;;3.75;;
20344;SDS011;10330;48.816;9.278;2023-04-25T08:20:18;8.52;;;3.80;;
20344;SDS011;10330;48.816;9.278;2023-04-25T08:22:45;4.22;;;3.83;;
20344;SDS011;10330;48.816;9.278;2023-04-25T08:25:25;4.88;;;3.70;;
20344;SDS011;10330;48.816;9.278;2023-04-25T08:27:51;7.45;;;4.53;;
20344;SDS011;10330;48.816;9.278;2023-04-25T08:30:20;8.50;;;3.97;;
20344;SDS011;10330;48.816;9.278;2023-04-25T08:32:47;7.70;;;4.57;;
20344;SDS011;10330;48.816;9.278;2023-04-25T08:35:31;5.55;;;4.63;;
20344;SDS011;10330;48.816;9.278;2023-04-25T08:38:05;5.82;;;3.97;;
20344;SDS011;10330;48.816;9.278;2023-04-25T08:40:59;5.30;;;3.88;;
20344;SDS011;10330;48.816;9.278;2023-04-25T08:43:27;5.22;;;4.13;;
20344;SDS011;10330;48.816;9.278;2023-04-25T08:45:59;6.20;;;4.28;;
20344;SDS011;10330;48.816;9.278;2023-04-25T08:48:36;9.10;;;4.53;;
20344;SDS011;10330;48.816;9.278;2023-04-25T08:51:04;4.57;;;3.90;;
20344;SDS011;10330;48.816;9.278;2023-04-25T08:53:47;5.95;;;4.25;;
20344;SDS011;10330;48.816;9.278;2023-04-25T08:56:16;6.20;;;4.20;;
20344;SDS011;10330;48.816;9.278;2023-04-25T08:58:49;7.28;;;4.57;;
20344;SDS011;10330;48.816;9.278;2023-04-25T09:01:17;5.53;;;4.32;;
20344;SDS011;10330;48.816;9.278;2023-04-25T09:03:48;4.38;;;3.97;;
20344;SDS011;10330;48.816;9.278;2023-04-25T09:06:15;6.10;;;3.35;;
20344;SDS011;10330;48.816;9.278;2023-04-25T09:08:43;4.15;;;3.75;;
20344;SDS011;10330;48.816;9.278;2023-04-25T09:11:09;6.75;;;3.85;;
20344;SDS011;10330;48.816;9.278;2023-04-25T09:13:36;5.15;;;4.28;;
20344;SDS011;10330;48.816;9.278;2023-04-25T09:16:19;8.25;;;4.05;;
20344;SDS011;10330;48.816;9.278;2023-04-25T09:21:53;5.22;;;3.67;;
20344;SDS011;10330;48.816;9.278;2023-04-25T09:24:34;3.85;;;3.53;;
20344;SDS011;10330;48.816;9.278;2023-04-25T09:27:51;5.90;;;4.28;;
20344;SDS011;10330;48.816;9.278;2023-04-25T09:30:33;3.63;;;3.33;;
20344;SDS011;10330;48.816;9.278;2023-04-25T09:33:13;9.27;;;4.00;;
20344;SDS011;10330;48.816;9.278;2023-04-25T09:35:45;4.20;;;3.80;;
20344;SDS011;10330;48.816;9.278;2023-04-25T09:38:24;5.07;;;4.22;;
20344;SDS011;10330;48.816;9.278;2023-04-25T09:41:00;5.07;;;4.13;;
20344;SDS011;10330;48.816;9.278;2023-04-25T09:43:35;4.25;;;3.60;;
20344;SDS011;10330;48.816;9.278;2023-04-25T09:46:02;3.90;;;3.60;;
20344;SDS011;10330;48.816;9.278;2023-04-25T09:48:38;5.43;;;3.88;;
20344;SDS011;10330;48.816;9.278;2023-04-25T09:51:05;8.43;;;3.63;;
20344;SDS011;10330;48.816;9.278;2023-04-25T09:53:33;4.57;;;4.05;;
20344;SDS011;10330;48.816;9.278;2023-04-25T09:56:18;5.40;;;3.88;;
20344;SDS011;10330;48.816;9.278;2023-04-25T09:58:48;4.30;;;3.40;;
20344;SDS011;10330;48.816;9.278;2023-04-25T10:01:16;17.05;;;3.20;;
20344;SDS011;10330;48.816;9.278;2023-04-25T10:03:56;2.97;;;2.67;;
20344;SDS011;10330;48.816;9.278;2023-04-25T10:06:39;2.25;;;2.10;;
20344;SDS011;10330;48.816;9.278;2023-04-25T10:09:08;2.45;;;2.25;;
20344;SDS011;10330;48.816;9.278;2023-04-25T10:11:36;2.28;;;2.15;;
20344;SDS011;10330;48.816;9.278;2023-04-25T10:14:05;2.22;;;2.13;;
20344;SDS011;10330;48.816;9.278;2023-04-25T10:16:31;4.18;;;1.83;;
20344;SDS011;10330;48.816;9.278;2023-04-25T10:19:00;1.70;;;1.60;;
20344;SDS011;10330;48.816;9.278;2023-04-25T10:21:29;3.95;;;2.40;;
20344;SDS011;10330;48.816;9.278;2023-04-25T10:23:59;4.28;;;2.28;;
20344;SDS011;10330;48.816;9.278;2023-04-25T10:26:29;1.75;;;1.65;;
20344;SDS011;10330;48.816;9.278;2023-04-25T10:28:56;2.05;;;1.95;;
20344;SDS011;10330;48.816;9.278;2023-04-25T10:31:24;2.30;;;2.20;;
20344;SDS011;10330;48.816;9.278;2023-04-25T10:33:51;2.67;;;2.47;;
20344;SDS011;10330;48.816;9.278;2023-04-25T10:36:18;2.90;;;2.70;;
20344;SDS011;10330;48.816;9.278;2023-04-25T10:38:56;5.50;;;3.30;;
20344;SDS011;10330;48.816;9.278;2023-04-25T10:45:21;2.55;;;2.35;;
20344;SDS011;10330;48.816;9.278;2023-04-25T10:47:53;2.33;;;2.17;;
20344;SDS011;10330;48.816;9.278;2023-04-25T10:50:20;3.72;;;2.85;;
20344;SDS011;10330;48.816;9.278;2023-04-25T10:52:46;4.18;;;3.08;;
20344;SDS011;10330;48.816;9.278;2023-04-25T10:55:15;3.55;;;3.17;;
20344;SDS011;10330;48.816;9.278;2023-04-25T10:57:45;4.20;;;3.85;;
20344;SDS011;10330;48.816;9.278;2023-04-25T11:00:19;4.25;;;3.83;;
20344;SDS011;10330;48.816;9.278;2023-04-25T11:03:17;2.85;;;2.65;;
20344;SDS011;10330;48.816;9.278;2023-04-25T11:05:47;5.72;;;3.97;;
20344;SDS011;10330;48.816;9.278;2023-04-25T11:08:15;3.30;;;3.05;;
20344;SDS011;10330;48.816;9.278;2023-04-25T11:10:56;3.53;;;3.17;;
20344;SDS011;10330;48.816;9.278;2023-04-25T11:13:28;7.40;;;3.38;;
20344;SDS011;10330;48.816;9.278;2023-04-25T11:16:14;3.58;;;3.22;;
20344;SDS011;10330;48.816;9.278;2023-04-25T11:18:43;5.50;;;3.13;;
20344;SDS011;10330;48.816;9.278;2023-04-25T11:21:10;3.13;;;2.83;;
20344;SDS011;10330;48.816;9.278;2023-04-25T11:23:37;2.70;;;2.50;;
20344;SDS011;10330;48.816;9.278;2023-04-25T11:26:03;2.83;;;2.63;;
20344;SDS011;10330;48.816;9.278;2023-04-25T11:28:29;2.88;;;2.60;;
20344;SDS011;10330;48.816;9.278;2023-04-25T11:30:56;3.60;;;3.25;;
20344;SDS011;10330;48.816;9.278;2023-04-25T11:33:23;2.80;;;2.58;;
20344;SDS011;10330;48.816;9.278;2023-04-25T11:35:52;2.33;;;2.22;;
20344;SDS011;10330;48.816;9.278;2023-04-25T11:38:20;1.90;;;1.80;;
20344;SDS011;10330;48.816;9.278;2023-04-25T11:40:51;1.88;;;1.77;;
20344;SDS011;10330;48.816;9.278;2023-04-25T11:43:20;2.00;;;1.90;;
20344;SDS011;10330;48.816;9.278;2023-04-25T11:45:48;2.30;;;2.15;;
20344;SDS011;10330;48.816;9.278;2023-04-25T11:48:19;2.00;;;1.90;;
20344;SDS011;10330;48.816;9.278;2023-04-25T11:50:46;2.00;;;1.90;;
20344;SDS011;10330;48.816;9.278;2023-04-25T11:53:12;2.20;;;2.10;;
20344;SDS011;10330;48.816;9.278;2023-04-25T11:55:38;5.30;;;2.75;;
20344;SDS011;10330;48.816;9.278;2023-04-25T11:58:05;4.13;;;2.80;;
20344;SDS011;10330;48.816;9.278;2023-04-25T12:00:32;2.67;;;2.47;;
20344;SDS011;10330;48.816;9.278;2023-04-25T12:03:01;3.00;;;2.70;;
20344;SDS011;10330;48.816;9.278;2023-04-25T12:09:29;4.05;;;2.92;;
20344;SDS011;10330;48.816;9.278;2023-04-25T12:18:35;2.92;;;2.67;;
20344;SDS011;10330;48.816;9.278;2023-04-25T12:21:01;3.22;;;2.67;;
20344;SDS011;10330;48.816;9.278;2023-04-25T12:23:30;4.00;;;3.08;;
20344;SDS011;10330;48.816;9.278;2023-04-25T12:25:57;5.25;;;3.00;;
20344;SDS011;10330;48.816;9.278;2023-04-25T12:28:34;4.32;;;3.33;;
20344;SDS011;10330;48.816;9.278;2023-04-25T12:31:01;3.13;;;2.80;;
20344;SDS011;10330;48.816;9.278;2023-04-25T12:33:30;3.53;;;3.22;;
20344;SDS011;10330;48.816;9.278;2023-04-25T12:35:58;4.60;;;3.42;;
20344;SDS011;10330;48.816;9.278;2023-04-25T12:38:29;4.63;;;3.97;;
20344;SDS011;10330;48.816;9.278;2023-04-25T12:40:59;6.05;;;4.15;;
20344;SDS011;10330;48.816;9.278;2023-04-25T12:43:25;4.00;;;3.63;;
20344;SDS011;10330;48.816;9.278;2023-04-25T12:45:52;8.65;;;3.45;;
20344;SDS011;10330;48.816;9.278;2023-04-25T12:48:19;4.93;;;3.47;;
20344;SDS011;10330;48.816;9.278;2023-04-25T12:50:46;7.70;;;4.13;;
20344;SDS011;10330;48.816;9.278;2023-04-25T12:53:17;4.88;;;3.85;;
20344;SDS011;10330;48.816;9.278;2023-04-25T12:55:47;5.95;;;4.68;;
20344;SDS011;10330;48.816;9.278;2023-04-25T12:58:14;6.28;;;3.90;;
20344;SDS011;10330;48.816;9.278;2023-04-25T13:00:49;5.25;;;4.20;;
20344;SDS011;10330;48.816;9.278;2023-04-25T13:03:15;4.20;;;3.42;;
20344;SDS011;10330;48.816;9.278;2023-04-25T13:05:41;3.60;;;3.30;;
20344;SDS011;10330;48.816;9.278;2023-04-25T13:08:08;6.13;;;4.03;;
20344;SDS011;10330;48.816;9.278;2023-04-25T13:10:34;7.72;;;3.60;;
20344;SDS011;10330;48.816;9.278;2023-04-25T13:13:01;9.82;;;4.78;;
20344;SDS011;10330;48.816;9.278;2023-04-25T13:15:28;4.93;;;3.58;;
20344;SDS011;10330;48.816;9.278;2023-04-25T13:17:54;5.85;;;4.07;;
20344;SDS011;10330;48.816;9.278;2023-04-25T13:20:21;5.95;;;3.70;;
20344;SDS011;10330;48.816;9.278;2023-04-25T13:22:47;6.85;;;4.13;;
20344;SDS011;10330;48.816;9.278;2023-04-25T13:25:14;7.85;;;3.90;;
20344;SDS011;10330;48.816;9.278;2023-04-25T13:27:40;7.78;;;4.80;;
20344;SDS011;10330;48.816;9.278;2023-04-25T13:30:07;10.98;;;3.97;;
20344;SDS011;10330;48.816;9.278;2023-04-25T13:32:37;9.07;;;4.40;;
20344;SDS011;10330;48.816;9.278;2023-04-25T13:35:08;7.82;;;4.28;;
20344;SDS011;10330;48.816;9.278;2023-04-25T13:37:35;7.80;;;4.00;;
20344;SDS011;10330;48.816;9.278;2023-04-25T13:40:02;9.65;;;4.75;;
20344;SDS011;10330;48.816;9.278;2023-04-25T13:42:33;6.70;;;3.88;;
20344;SDS011;10330;48.816;9.278;2023-04-25T13:44:59;6.40;;;4.18;;
20344;SDS011;10330;48.816;9.278;2023-04-25T13:47:26;7.85;;;4.32;;
20344;SDS011;10330;48.816;9.278;2023-04-25T13:49:53;7.22;;;4.43;;
20344;SDS011;10330;48.816;9.278;2023-04-25T13:52:19;7.30;;;4.57;;
20344;SDS011;10330;48.816;9.278;2023-04-25T13:54:46;13.20;;;4.72;;
20344;SDS011;10330;48.816;9.278;2023-04-25T13:57:12;5.25;;;4.15;;
20344;SDS011;10330;48.816;9.278;2023-04-25T13:59:39;8.07;;;4.88;;
20344;SDS011;10330;48.816;9.278;2023-04-25T14:02:06;7.18;;;5.50;;
20344;SDS011;10330;48.816;9.278;2023-04-25T14:04:36;12.77;;;6.28;;
20344;SDS011;10330;48.816;9.278;2023-04-25T14:07:02;7.25;;;5.15;;
20344;SDS011;10330;48.816;9.278;2023-04-25T14:09:30;10.18;;;6.38;;
20344;SDS011;10330;48.816;9.278;2023-04-25T14:11:56;13.05;;;7.85;;
20344;SDS011;10330;48.816;9.278;2023-04-25T14:14:23;8.63;;;5.82;;
20344;SDS011;10330;48.816;9.278;2023-04-25T14:16:49;10.23;;;6.20;;
20344;SDS011;10330;48.816;9.278;2023-04-25T14:19:17;6.95;;;4.95;;
20344;SDS011;10330;48.816;9.278;2023-04-25T14:21:44;10.20;;;5.40;;
20344;SDS011;10330;48.816;9.278;2023-04-25T14:24:10;8.00;;;5.40;;
20344;SDS011;10330;48.816;9.278;2023-04-25T14:26:36;12.48;;;5.60;;
20344;SDS011;10330;48.816;9.278;2023-04-25T14:29:03;11.98;;;5.05;;
20344;SDS011;10330;48.816;9.278;2023-04-25T14:31:31;6.53;;;4.90;;
20344;SDS011;10330;48.816;9.278;2023-04-25T14:33:57;7.57;;;4.78;;
20344;SDS011;10330;48.816;9.278;2023-04-25T14:36:23;4.43;;;4.03;;
20344;SDS011;10330;48.816;9.278;2023-04-25T14:38:52;6.15;;;4.35;;
20344;SDS011;10330;48.816;9.278;2023-04-25T14:41:20;9.05;;;5.00;;
20344;SDS011;10330;48.816;9.278;2023-04-25T14:43:47;7.80;;;4.70;;
20344;SDS011;10330;48.816;9.278;2023-04-25T14:46:13;6.47;;;3.75;;
20344;SDS011;10330;48.816;9.278;2023-04-25T14:48:40;5.78;;;4.43;;
20344;SDS011;10330;48.816;9.278;2023-04-25T14:51:06;6.07;;;3.88;;
20344;SDS011;10330;48.816;9.278;2023-04-25T14:53:33;6.78;;;3.80;;
20344;SDS011;10330;48.816;9.278;2023-04-25T14:55:59;5.32;;;4.50;;
20344;SDS011;10330;48.816;9.278;2023-04-25T14:58:26;6.25;;;4.70;;
20344;SDS011;10330;48.816;9.278;2023-04-25T15:00:53;8.85;;;6.55;;
20344;SDS011;10330;48.816;9.278;2023-04-25T15:03:19;11.02;;;4.95;;
20344;SDS011;10330;48.816;9.278;2023-04-25T15:05:46;4.38;;;3.85;;
20344;SDS011;10330;48.816;9.278;2023-04-25T15:08:13;6.80;;;4.00;;
20344;SDS011;10330;48.816;9.278;2023-04-25T15:10:39;6.90;;;3.95;;
20344;SDS011;10330;48.816;9.278;2023-04-25T15:13:07;10.45;;;4.10;;
20344;SDS011;10330;48.816;9.278;2023-04-25T15:15:37;8.80;;;4.20;;
20344;SDS011;10330;48.816;9.278;2023-04-25T15:18:12;6.32;;;3.60;;
20344;SDS011;10330;48.816;9.278;2023-04-25T15:20:42;6.15;;;3.72;;
20344;SDS011;10330;48.816;9.278;2023-04-25T15:23:09;5.72;;;4.22;;
20344;SDS011;10330;48.816;9.278;2023-04-25T15:25:36;8.68;;;4.28;;